createdAt,value
2018-07-27T00:00:58.016Z,0.00
2018-07-27T00:01:57.922Z,0.00
2018-07-27T00:02:57.837Z,0.00
2018-07-27T00:03:57.741Z,0.00
2018-07-27T00:04:57.652Z,0.00
2018-07-27T00:05:57.560Z,0.00
2018-07-27T00:06:57.459Z,0.00
2018-07-27T00:07:57.368Z,0.00
2018-07-27T00:08:57.275Z,0.00
2018-07-27T00:09:57.185Z,0.00
2018-07-27T00:10:57.092Z,0.00
2018-07-27T00:11:57.001Z,0.00
2018-07-27T00:12:56.914Z,0.00
2018-07-27T00:13:56.807Z,0.00
2018-07-27T00:14:56.718Z,0.00
2018-07-27T00:15:56.640Z,0.00
2018-07-27T00:16:56.536Z,0.00
2018-07-27T00:17:56.698Z,0.00
2018-07-27T00:18:56.354Z,0.00
2018-07-27T00:19:56.252Z,0.00
2018-07-27T00:20:56.159Z,0.00
2018-07-27T00:21:56.069Z,0.00
2018-07-27T00:22:55.980Z,0.00
2018-07-27T00:23:55.888Z,0.00
2018-07-27T00:24:55.795Z,0.00
2018-07-27T00:25:55.693Z,0.00
2018-07-27T00:26:55.604Z,0.00
2018-07-27T00:27:55.512Z,0.00
2018-07-27T00:28:55.422Z,0.00
2018-07-27T00:29:55.330Z,0.00
2018-07-27T00:30:55.243Z,0.00
2018-07-27T00:31:55.146Z,0.00
2018-07-27T00:32:55.043Z,0.00
2018-07-27T00:33:54.953Z,0.00
2018-07-27T00:34:54.865Z,0.00
2018-07-27T00:35:54.775Z,0.00
2018-07-27T00:36:54.682Z,0.00
2018-07-27T00:37:54.830Z,0.00
2018-07-27T00:38:54.492Z,0.00
2018-07-27T00:39:54.398Z,0.00
2018-07-27T00:40:54.308Z,0.00
2018-07-27T00:41:54.219Z,0.00
2018-07-27T00:42:54.124Z,0.00
2018-07-27T00:43:54.026Z,0.00
2018-07-27T00:44:53.930Z,0.00
2018-07-27T00:45:53.839Z,0.00
2018-07-27T00:46:53.750Z,0.00
2018-07-27T00:47:53.659Z,0.00
2018-07-27T00:48:53.557Z,0.00
2018-07-27T00:49:53.464Z,0.00
2018-07-27T00:50:53.373Z,0.00
2018-07-27T00:51:53.288Z,0.00
2018-07-27T00:52:53.191Z,0.00
2018-07-27T00:53:53.099Z,0.00
2018-07-27T00:54:52.999Z,0.00
2018-07-27T00:55:52.905Z,0.00
2018-07-27T00:56:52.828Z,0.00
2018-07-27T00:57:52.725Z,0.00
2018-07-27T00:58:52.635Z,0.00
2018-07-27T00:59:52.533Z,0.00
2018-07-27T01:00:52.444Z,0.00
2018-07-27T01:01:52.350Z,0.00
2018-07-27T01:02:52.258Z,0.00
2018-07-27T01:03:52.166Z,0.00
2018-07-27T01:04:52.065Z,0.00
2018-07-27T01:05:51.985Z,0.00
2018-07-27T01:06:51.883Z,0.00
2018-07-27T01:07:52.093Z,0.00
2018-07-27T01:08:51.702Z,0.00
2018-07-27T01:09:51.615Z,0.00
2018-07-27T01:10:51.514Z,0.00
2018-07-27T01:11:51.417Z,0.00
2018-07-27T01:12:51.327Z,0.00
2018-07-27T01:13:51.236Z,0.00
2018-07-27T01:14:51.143Z,0.00
2018-07-27T01:15:51.051Z,0.00
2018-07-27T01:16:50.948Z,0.00
2018-07-27T01:17:50.859Z,0.00
2018-07-27T01:18:50.768Z,0.00
2018-07-27T01:19:50.679Z,0.00
2018-07-27T01:20:50.586Z,0.00
2018-07-27T01:21:50.483Z,0.00
2018-07-27T01:22:50.392Z,0.00
2018-07-27T01:23:50.300Z,0.00
2018-07-27T01:24:50.209Z,0.00
2018-07-27T01:25:50.118Z,0.00
2018-07-27T01:26:50.018Z,0.00
2018-07-27T01:27:50.177Z,0.00
2018-07-27T01:28:49.835Z,0.00
2018-07-27T01:29:49.746Z,0.00
2018-07-27T01:30:49.651Z,0.00
2018-07-27T01:31:49.549Z,0.00
2018-07-27T01:32:49.459Z,0.00
2018-07-27T01:33:49.367Z,0.00
2018-07-27T01:34:49.279Z,0.00
2018-07-27T01:35:49.189Z,0.00
2018-07-27T01:36:49.083Z,0.00
2018-07-27T01:37:48.994Z,0.00
2018-07-27T01:38:48.900Z,0.00
2018-07-27T01:39:48.813Z,0.00
2018-07-27T01:40:48.718Z,0.00
2018-07-27T01:41:48.615Z,0.00
2018-07-27T01:42:48.525Z,0.00
2018-07-27T01:43:48.433Z,0.00
2018-07-27T01:44:48.344Z,0.00
2018-07-27T01:45:48.240Z,0.00
2018-07-27T01:46:48.151Z,0.00
2018-07-27T01:47:48.061Z,0.00
2018-07-27T01:48:47.969Z,0.00
2018-07-27T01:49:47.878Z,0.00
2018-07-27T01:50:47.777Z,0.00
2018-07-27T01:51:47.681Z,0.00
2018-07-27T01:52:47.593Z,0.00
2018-07-27T01:53:47.502Z,0.00
2018-07-27T01:54:47.412Z,0.00
2018-07-27T01:55:47.309Z,0.00
2018-07-27T01:56:47.218Z,0.00
2018-07-27T01:57:47.128Z,0.00
2018-07-27T01:58:47.035Z,0.00
2018-07-27T01:59:46.947Z,0.00
2018-07-27T02:00:46.843Z,0.00
2018-07-27T02:01:46.751Z,0.00
2018-07-27T02:02:46.909Z,0.00
2018-07-27T02:03:46.567Z,0.00
2018-07-27T02:04:46.464Z,0.00
2018-07-27T02:05:46.374Z,0.00
2018-07-27T02:06:46.284Z,0.00
2018-07-27T02:07:46.195Z,0.00
2018-07-27T02:08:46.103Z,0.00
2018-07-27T02:09:46.000Z,0.00
2018-07-27T02:10:45.907Z,0.00
2018-07-27T02:11:45.816Z,0.00
2018-07-27T02:12:46.026Z,0.00
2018-07-27T02:13:45.623Z,0.00
2018-07-27T02:14:45.531Z,0.00
2018-07-27T02:15:45.441Z,0.00
2018-07-27T02:16:45.349Z,0.00
2018-07-27T02:17:45.259Z,0.00
2018-07-27T02:18:45.169Z,0.00
2018-07-27T02:19:45.067Z,0.00
2018-07-27T02:20:44.979Z,0.00
2018-07-27T02:21:44.898Z,0.00
2018-07-27T02:22:45.083Z,0.00
2018-07-27T02:23:44.690Z,0.00
2018-07-27T02:24:44.599Z,0.00
2018-07-27T02:25:44.508Z,0.00
2018-07-27T02:26:44.407Z,0.00
2018-07-27T02:27:44.315Z,0.00
2018-07-27T02:28:44.225Z,0.00
2018-07-27T02:29:44.133Z,0.00
2018-07-27T02:30:44.032Z,0.00
2018-07-27T02:31:43.940Z,0.00
2018-07-27T02:32:43.849Z,0.00
2018-07-27T02:33:43.787Z,0.00
2018-07-27T02:34:43.666Z,0.00
2018-07-27T02:35:43.562Z,0.00
2018-07-27T02:36:43.472Z,0.00
2018-07-27T02:37:43.380Z,0.00
2018-07-27T02:38:43.281Z,0.00
2018-07-27T02:39:43.189Z,0.00
2018-07-27T02:40:43.101Z,0.00
2018-07-27T02:41:43.010Z,0.00
2018-07-27T02:42:42.913Z,0.00
2018-07-27T02:43:42.810Z,0.00
2018-07-27T02:44:42.721Z,0.00
2018-07-27T02:45:42.629Z,0.00
2018-07-27T02:46:42.527Z,0.00
2018-07-27T02:47:42.435Z,0.00
2018-07-27T02:48:42.343Z,0.00
2018-07-27T02:49:42.256Z,0.00
2018-07-27T02:50:42.164Z,0.00
2018-07-27T02:51:42.061Z,0.00
2018-07-27T02:52:41.971Z,0.00
2018-07-27T02:53:41.878Z,0.00
2018-07-27T02:54:41.775Z,0.00
2018-07-27T02:55:41.683Z,0.00
2018-07-27T02:56:41.592Z,0.00
2018-07-27T02:57:41.801Z,0.00
2018-07-27T02:58:41.402Z,0.00
2018-07-27T02:59:41.310Z,0.00
2018-07-27T03:00:41.219Z,0.00
2018-07-27T03:01:41.128Z,0.00
2018-07-27T03:02:41.025Z,0.00
2018-07-27T03:03:40.934Z,0.00
2018-07-27T03:04:40.842Z,0.00
2018-07-27T03:05:40.753Z,0.00
2018-07-27T03:06:40.648Z,0.00
2018-07-27T03:07:40.806Z,0.00
2018-07-27T03:08:40.466Z,0.00
2018-07-27T03:09:40.443Z,0.00
2018-07-27T03:10:40.273Z,0.00
2018-07-27T03:11:40.183Z,0.00
2018-07-27T03:12:40.091Z,5.63
2018-07-27T03:13:40.005Z,5.63
2018-07-27T03:14:39.896Z,5.63
2018-07-27T03:15:39.804Z,5.63
2018-07-27T03:16:39.713Z,5.63
2018-07-27T03:17:39.624Z,5.63
2018-07-27T03:18:39.519Z,5.63
2018-07-27T03:19:39.433Z,5.63
2018-07-27T03:20:39.347Z,5.63
2018-07-27T03:21:39.235Z,11.25
2018-07-27T03:22:39.152Z,11.25
2018-07-27T03:23:39.055Z,11.25
2018-07-27T03:24:38.954Z,11.25
2018-07-27T03:25:38.872Z,11.25
2018-07-27T03:26:38.771Z,11.25
2018-07-27T03:27:38.678Z,11.25
2018-07-27T03:28:38.586Z,16.88
2018-07-27T03:29:38.483Z,16.88
2018-07-27T03:30:38.394Z,16.88
2018-07-27T03:31:38.303Z,16.88
2018-07-27T03:32:38.201Z,16.88
2018-07-27T03:33:38.111Z,22.50
2018-07-27T03:34:38.020Z,22.50
2018-07-27T03:35:37.929Z,22.50
2018-07-27T03:36:37.823Z,22.50
2018-07-27T03:37:37.731Z,28.13
2018-07-27T03:38:37.645Z,28.13
2018-07-27T03:39:37.558Z,28.13
2018-07-27T03:40:37.449Z,28.13
2018-07-27T03:41:37.359Z,28.13
2018-07-27T03:42:37.265Z,33.75
2018-07-27T03:43:37.221Z,33.75
2018-07-27T03:44:37.072Z,33.75
2018-07-27T03:45:36.981Z,33.75
2018-07-27T03:46:36.892Z,39.38
2018-07-27T03:47:36.800Z,39.38
2018-07-27T03:48:36.699Z,39.38
2018-07-27T03:49:36.607Z,39.38
2018-07-27T03:50:36.516Z,45.00
2018-07-27T03:51:36.414Z,45.00
2018-07-27T03:52:36.322Z,45.00
2018-07-27T03:53:36.231Z,50.63
2018-07-27T03:54:36.140Z,50.63
2018-07-27T03:55:36.036Z,50.63
2018-07-27T03:56:35.944Z,56.25
2018-07-27T03:57:35.855Z,56.25
2018-07-27T03:58:35.765Z,56.25
2018-07-27T03:59:35.663Z,61.88
2018-07-27T04:00:35.575Z,61.88
2018-07-27T04:01:35.481Z,67.50
2018-07-27T04:02:35.388Z,67.50
2018-07-27T04:03:35.284Z,67.50
2018-07-27T04:04:35.192Z,67.50
2018-07-27T04:05:35.107Z,73.13
2018-07-27T04:06:35.012Z,73.13
2018-07-27T04:07:35.210Z,73.13
2018-07-27T04:08:34.848Z,78.75
2018-07-27T04:09:34.727Z,78.75
2018-07-27T04:10:34.637Z,78.75
2018-07-27T04:11:34.546Z,78.75
2018-07-27T04:12:34.444Z,84.38
2018-07-27T04:13:34.352Z,84.38
2018-07-27T04:14:34.265Z,84.38
2018-07-27T04:15:34.170Z,84.38
2018-07-27T04:16:34.068Z,90.00
2018-07-27T04:17:33.974Z,90.00
2018-07-27T04:18:33.888Z,95.63
2018-07-27T04:19:33.808Z,95.63
2018-07-27T04:20:33.691Z,95.63
2018-07-27T04:21:33.633Z,101.25
2018-07-27T04:22:33.530Z,101.25
2018-07-27T04:23:33.420Z,106.88
2018-07-27T04:24:33.328Z,106.88
2018-07-27T04:25:33.225Z,112.50
2018-07-27T04:26:33.132Z,112.50
2018-07-27T04:27:33.042Z,112.50
2018-07-27T04:28:32.952Z,112.50
2018-07-27T04:29:32.849Z,118.13
2018-07-27T04:30:32.758Z,123.75
2018-07-27T04:31:32.668Z,123.75
2018-07-27T04:32:32.576Z,129.38
2018-07-27T04:33:32.487Z,135.00
2018-07-27T04:34:32.381Z,146.25
2018-07-27T04:35:32.290Z,157.50
2018-07-27T04:36:32.201Z,168.75
2018-07-27T04:37:32.107Z,185.63
2018-07-27T04:38:32.018Z,191.25
2018-07-27T04:39:31.915Z,202.50
2018-07-27T04:40:31.823Z,208.13
2018-07-27T04:41:31.735Z,213.75
2018-07-27T04:42:31.943Z,219.38
2018-07-27T04:43:31.553Z,225.00
2018-07-27T04:44:31.462Z,225.00
2018-07-27T04:45:31.359Z,230.63
2018-07-27T04:46:31.266Z,236.25
2018-07-27T04:47:31.175Z,236.25
2018-07-27T04:48:31.084Z,241.88
2018-07-27T04:49:31.049Z,247.50
2018-07-27T04:50:30.905Z,253.13
2018-07-27T04:51:30.813Z,253.13
2018-07-27T04:52:30.722Z,258.75
2018-07-27T04:53:30.635Z,264.38
2018-07-27T04:54:30.529Z,264.38
2018-07-27T04:55:30.438Z,270.00
2018-07-27T04:56:30.363Z,275.63
2018-07-27T04:57:30.257Z,281.25
2018-07-27T04:58:30.163Z,281.25
2018-07-27T04:59:30.078Z,286.88
2018-07-27T05:00:29.981Z,298.13
2018-07-27T05:01:29.891Z,298.13
2018-07-27T05:02:29.802Z,298.13
2018-07-27T05:03:29.712Z,298.13
2018-07-27T05:04:29.620Z,303.75
2018-07-27T05:05:29.530Z,309.38
2018-07-27T05:06:29.436Z,320.63
2018-07-27T05:07:29.347Z,320.63
2018-07-27T05:08:29.256Z,320.63
2018-07-27T05:09:29.165Z,326.25
2018-07-27T05:10:29.074Z,331.88
2018-07-27T05:11:28.986Z,337.50
2018-07-27T05:12:28.892Z,343.13
2018-07-27T05:13:28.801Z,343.13
2018-07-27T05:14:28.712Z,348.75
2018-07-27T05:15:28.623Z,354.38
2018-07-27T05:16:28.543Z,360.00
2018-07-27T05:17:28.692Z,365.63
2018-07-27T05:18:28.348Z,371.25
2018-07-27T05:19:28.256Z,376.88
2018-07-27T05:20:28.166Z,382.50
2018-07-27T05:21:28.111Z,388.13
2018-07-27T05:22:27.987Z,388.13
2018-07-27T05:23:27.907Z,393.75
2018-07-27T05:24:27.817Z,399.38
2018-07-27T05:25:27.727Z,405.00
2018-07-27T05:26:27.635Z,416.25
2018-07-27T05:27:27.545Z,416.25
2018-07-27T05:28:27.456Z,421.88
2018-07-27T05:29:27.374Z,427.50
2018-07-27T05:30:27.269Z,433.13
2018-07-27T05:31:27.178Z,438.75
2018-07-27T05:32:27.088Z,444.38
2018-07-27T05:33:27.009Z,450.00
2018-07-27T05:34:26.965Z,461.25
2018-07-27T05:35:26.830Z,466.88
2018-07-27T05:36:26.738Z,466.88
2018-07-27T05:37:26.647Z,478.13
2018-07-27T05:38:26.568Z,489.38
2018-07-27T05:39:26.465Z,500.63
2018-07-27T05:40:26.375Z,511.88
2018-07-27T05:41:26.294Z,528.75
2018-07-27T05:42:26.207Z,540.00
2018-07-27T05:43:26.114Z,568.13
2018-07-27T05:44:26.025Z,596.25
2018-07-27T05:45:25.933Z,618.75
2018-07-27T05:46:25.855Z,658.13
2018-07-27T05:47:25.764Z,691.88
2018-07-27T05:48:25.671Z,725.63
2018-07-27T05:49:25.581Z,770.63
2018-07-27T05:50:25.494Z,804.38
2018-07-27T05:51:25.413Z,838.13
2018-07-27T05:52:25.322Z,849.38
2018-07-27T05:53:25.235Z,866.25
2018-07-27T05:54:25.139Z,883.13
2018-07-27T05:55:25.050Z,877.50
2018-07-27T05:56:24.969Z,871.88
2018-07-27T05:57:24.881Z,860.63
2018-07-27T05:58:24.790Z,838.13
2018-07-27T05:59:24.735Z,826.88
2018-07-27T06:00:24.620Z,821.25
2018-07-27T06:01:24.528Z,804.38
2018-07-27T06:02:24.442Z,798.75
2018-07-27T06:03:24.349Z,793.13
2018-07-27T06:04:24.270Z,787.50
2018-07-27T06:05:24.180Z,787.50
2018-07-27T06:06:24.086Z,793.13
2018-07-27T06:07:23.996Z,793.13
2018-07-27T06:08:23.931Z,793.13
2018-07-27T06:09:23.826Z,793.13
2018-07-27T06:10:23.738Z,798.75
2018-07-27T06:11:23.647Z,804.38
2018-07-27T06:12:23.568Z,810.00
2018-07-27T06:13:23.478Z,826.88
2018-07-27T06:14:23.389Z,832.50
2018-07-27T06:15:23.308Z,838.13
2018-07-27T06:16:23.218Z,849.38
2018-07-27T06:17:23.127Z,860.63
2018-07-27T06:18:23.034Z,866.25
2018-07-27T06:19:22.956Z,877.50
2018-07-27T06:20:22.865Z,888.75
2018-07-27T06:21:22.776Z,900.00
2018-07-27T06:22:22.700Z,911.25
2018-07-27T06:23:22.609Z,916.88
2018-07-27T06:24:22.598Z,933.75
2018-07-27T06:25:22.439Z,956.25
2018-07-27T06:26:22.359Z,956.25
2018-07-27T06:27:22.256Z,967.50
2018-07-27T06:28:22.185Z,973.13
2018-07-27T06:29:22.146Z,990.00
2018-07-27T06:30:22.008Z,995.63
2018-07-27T06:31:21.918Z,1001.25
2018-07-27T06:32:21.827Z,1018.13
2018-07-27T06:33:21.748Z,1040.63
2018-07-27T06:34:21.660Z,1051.88
2018-07-27T06:35:21.571Z,1063.13
2018-07-27T06:36:21.490Z,1068.75
2018-07-27T06:37:21.403Z,1080.00
2018-07-27T06:38:21.321Z,1080.00
2018-07-27T06:39:21.228Z,1085.63
2018-07-27T06:40:21.151Z,1096.88
2018-07-27T06:41:21.060Z,1102.50
2018-07-27T06:42:20.971Z,1119.38
2018-07-27T06:43:20.898Z,1119.38
2018-07-27T06:44:20.806Z,1119.38
2018-07-27T06:45:20.739Z,1125.00
2018-07-27T06:46:20.633Z,1113.75
2018-07-27T06:47:20.555Z,1119.38
2018-07-27T06:48:20.464Z,1119.38
2018-07-27T06:49:20.374Z,1130.63
2018-07-27T06:50:20.292Z,1141.88
2018-07-27T06:51:20.203Z,1153.13
2018-07-27T06:52:20.173Z,1170.00
2018-07-27T06:53:20.033Z,1198.13
2018-07-27T06:54:19.957Z,1321.88
2018-07-27T06:55:19.867Z,1890.00
2018-07-27T06:56:19.788Z,2272.50
2018-07-27T06:57:19.998Z,2115.00
2018-07-27T06:58:19.616Z,2143.13
2018-07-27T06:59:19.538Z,2193.75
2018-07-27T07:00:19.448Z,2205.00
2018-07-27T07:01:19.370Z,2210.63
2018-07-27T07:02:19.278Z,2216.25
2018-07-27T07:03:19.217Z,2199.38
2018-07-27T07:04:19.111Z,2205.00
2018-07-27T07:05:19.032Z,2233.13
2018-07-27T07:06:18.942Z,2261.25
2018-07-27T07:07:18.868Z,2261.25
2018-07-27T07:08:18.774Z,2306.25
2018-07-27T07:09:18.696Z,2317.50
2018-07-27T07:10:18.603Z,2328.75
2018-07-27T07:11:18.524Z,2323.13
2018-07-27T07:12:18.446Z,2334.38
2018-07-27T07:13:18.356Z,2340.00
2018-07-27T07:14:18.280Z,2328.75
2018-07-27T07:15:18.188Z,2368.13
2018-07-27T07:16:18.109Z,2418.75
2018-07-27T07:17:18.020Z,2452.50
2018-07-27T07:18:17.941Z,2514.38
2018-07-27T07:19:17.863Z,2536.88
2018-07-27T07:20:17.774Z,2548.13
2018-07-27T07:21:17.693Z,2531.25
2018-07-27T07:22:17.601Z,2536.88
2018-07-27T07:23:17.523Z,2486.25
2018-07-27T07:24:17.444Z,2497.50
2018-07-27T07:25:17.463Z,2536.88
2018-07-27T07:26:17.276Z,2508.75
2018-07-27T07:27:17.186Z,2525.63
2018-07-27T07:28:17.107Z,2531.25
2018-07-27T07:29:17.018Z,2520.00
2018-07-27T07:30:16.937Z,2604.38
2018-07-27T07:31:16.857Z,2666.25
2018-07-27T07:32:16.768Z,2638.13
2018-07-27T07:33:16.727Z,2683.13
2018-07-27T07:34:16.611Z,2671.88
2018-07-27T07:35:16.519Z,2677.50
2018-07-27T07:36:16.441Z,2756.25
2018-07-27T07:37:16.362Z,2823.75
2018-07-27T07:38:16.279Z,2868.75
2018-07-27T07:39:16.255Z,2880.00
2018-07-27T07:40:16.108Z,2835.00
2018-07-27T07:41:16.027Z,2846.25
2018-07-27T07:42:15.946Z,2863.13
2018-07-27T07:43:15.867Z,2880.00
2018-07-27T07:44:15.780Z,2880.00
2018-07-27T07:45:15.700Z,2863.13
2018-07-27T07:46:15.612Z,2868.75
2018-07-27T07:47:15.532Z,2812.50
2018-07-27T07:48:15.454Z,2778.75
2018-07-27T07:49:15.423Z,2868.75
2018-07-27T07:50:15.285Z,2919.38
2018-07-27T07:51:15.205Z,3003.75
2018-07-27T07:52:15.127Z,3071.25
2018-07-27T07:53:15.035Z,3076.88
2018-07-27T07:54:14.958Z,3105.00
2018-07-27T07:55:14.893Z,3172.50
2018-07-27T07:56:14.790Z,3133.13
2018-07-27T07:57:14.712Z,3105.00
2018-07-27T07:58:14.632Z,3127.50
2018-07-27T07:59:14.553Z,3093.75
2018-07-27T08:00:14.465Z,3060.00
2018-07-27T08:01:14.383Z,3020.63
2018-07-27T08:02:14.307Z,2806.88
2018-07-27T08:03:14.217Z,2075.63
2018-07-27T08:04:14.148Z,1276.88
2018-07-27T08:05:14.048Z,787.50
2018-07-27T08:06:13.969Z,607.50
2018-07-27T08:07:13.892Z,517.50
2018-07-27T08:08:13.800Z,500.63
2018-07-27T08:09:13.722Z,495.00
2018-07-27T08:10:13.628Z,489.38
2018-07-27T08:11:13.582Z,489.38
2018-07-27T08:12:13.459Z,478.13
2018-07-27T08:13:13.382Z,478.13
2018-07-27T08:14:13.293Z,478.13
2018-07-27T08:15:13.213Z,478.13
2018-07-27T08:16:13.123Z,478.13
2018-07-27T08:17:13.101Z,472.50
2018-07-27T08:18:12.952Z,478.13
2018-07-27T08:19:12.863Z,478.13
2018-07-27T08:20:12.784Z,483.75
2018-07-27T08:21:12.692Z,489.38
2018-07-27T08:22:12.613Z,506.25
2018-07-27T08:23:12.524Z,517.50
2018-07-27T08:24:12.433Z,523.13
2018-07-27T08:25:12.354Z,523.13
2018-07-27T08:26:12.268Z,523.13
2018-07-27T08:27:12.174Z,523.13
2018-07-27T08:28:12.085Z,534.38
2018-07-27T08:29:12.006Z,545.63
2018-07-27T08:30:11.925Z,562.50
2018-07-27T08:31:11.821Z,573.75
2018-07-27T08:32:11.732Z,585.00
2018-07-27T08:33:11.652Z,607.50
2018-07-27T08:34:11.565Z,630.00
2018-07-27T08:35:11.473Z,646.88
2018-07-27T08:36:11.397Z,686.25
2018-07-27T08:37:11.304Z,725.63
2018-07-27T08:38:11.213Z,810.00
2018-07-27T08:39:11.123Z,950.63
2018-07-27T08:40:11.031Z,1170.00
2018-07-27T08:41:10.953Z,1980.00
2018-07-27T08:42:10.862Z,3015.00
2018-07-27T08:43:10.782Z,3481.88
2018-07-27T08:44:10.680Z,3487.50
2018-07-27T08:45:10.588Z,3566.25
2018-07-27T08:46:10.530Z,3560.63
2018-07-27T08:47:10.434Z,3538.13
2018-07-27T08:48:10.330Z,3571.88
2018-07-27T08:49:10.239Z,3695.63
2018-07-27T08:50:10.145Z,3746.25
2018-07-27T08:51:10.059Z,3588.75
2018-07-27T08:52:10.215Z,3746.25
2018-07-27T08:53:09.886Z,3836.25
2018-07-27T08:54:09.795Z,3661.88
2018-07-27T08:55:09.706Z,3420.00
2018-07-27T08:56:09.614Z,3459.38
2018-07-27T08:57:09.773Z,3661.88
2018-07-27T08:58:09.446Z,3926.25
2018-07-27T08:59:09.357Z,3988.13
2018-07-27T09:00:09.265Z,3960.00
2018-07-27T09:01:09.175Z,3903.75
2018-07-27T09:02:09.089Z,3802.50
2018-07-27T09:03:09.003Z,3948.75
2018-07-27T09:04:08.913Z,866.25
2018-07-27T09:05:08.822Z,3954.38
2018-07-27T09:06:08.745Z,3723.75
2018-07-27T09:07:08.655Z,4038.75
2018-07-27T09:08:08.564Z,4050.00
2018-07-27T09:09:08.487Z,3954.38
2018-07-27T09:10:08.397Z,4134.38
2018-07-27T09:11:08.317Z,4123.13
2018-07-27T09:12:08.225Z,4134.38
2018-07-27T09:13:08.147Z,765.00
2018-07-27T09:14:08.054Z,3836.25
2018-07-27T09:15:07.976Z,3886.88
2018-07-27T09:16:07.972Z,1771.88
2018-07-27T09:17:08.133Z,1282.50
2018-07-27T09:18:07.723Z,4280.63
2018-07-27T09:19:07.642Z,4280.63
2018-07-27T09:20:07.549Z,725.63
2018-07-27T09:21:07.470Z,787.50
2018-07-27T09:22:07.378Z,753.75
2018-07-27T09:23:07.300Z,4426.88
2018-07-27T09:24:07.218Z,3538.13
2018-07-27T09:25:07.375Z,4303.13
2018-07-27T09:26:07.052Z,4528.13
2018-07-27T09:27:07.050Z,4528.13
2018-07-27T09:28:06.959Z,4528.13
2018-07-27T09:29:06.792Z,4353.75
2018-07-27T09:30:06.716Z,4269.38
2018-07-27T09:31:06.638Z,4286.25
2018-07-27T09:32:06.558Z,4342.50
2018-07-27T09:33:06.560Z,4280.63
2018-07-27T09:34:06.534Z,4359.38
2018-07-27T09:35:06.395Z,4578.75
2018-07-27T09:36:06.308Z,3661.88
2018-07-27T09:37:06.220Z,3380.63
2018-07-27T09:38:06.140Z,815.63
2018-07-27T09:39:06.062Z,714.38
2018-07-27T09:40:05.896Z,720.00
2018-07-27T09:41:05.818Z,900.00
2018-07-27T09:42:05.748Z,1923.75
2018-07-27T09:43:05.644Z,4342.50
2018-07-27T09:44:05.569Z,4404.38
2018-07-27T09:45:05.481Z,4494.38
2018-07-27T09:46:05.486Z,4421.25
2018-07-27T09:47:05.396Z,4455.00
2018-07-27T09:48:05.316Z,4471.88
2018-07-27T09:49:05.238Z,4432.50
2018-07-27T09:50:05.162Z,4432.50
2018-07-27T09:51:05.072Z,3785.63
2018-07-27T09:52:04.993Z,4657.50
2018-07-27T09:53:04.915Z,4573.13
2018-07-27T09:54:04.822Z,3785.63
2018-07-27T09:55:04.743Z,4348.13
2018-07-27T09:56:04.665Z,4455.00
2018-07-27T09:57:04.587Z,4623.75
2018-07-27T09:58:04.499Z,4376.25
2018-07-27T09:59:04.420Z,4246.88
2018-07-27T10:00:04.342Z,4066.88
2018-07-27T10:01:04.264Z,4269.38
2018-07-27T10:02:04.172Z,4483.13
2018-07-27T10:03:04.091Z,4415.63
2018-07-27T10:04:04.014Z,4393.13
2018-07-27T10:05:03.923Z,4561.88
2018-07-27T10:06:03.847Z,4533.75
2018-07-27T10:07:04.069Z,4505.63
2018-07-27T10:08:03.690Z,4539.38
2018-07-27T10:09:03.613Z,4584.38
2018-07-27T10:10:03.519Z,4668.75
2018-07-27T10:11:03.440Z,4680.00
2018-07-27T10:12:03.363Z,4651.88
2018-07-27T10:13:03.283Z,4528.13
2018-07-27T10:14:03.206Z,4505.63
2018-07-27T10:15:03.115Z,4657.50
2018-07-27T10:16:03.036Z,4640.63
2018-07-27T10:17:02.959Z,4663.13
2018-07-27T10:18:02.882Z,4556.25
2018-07-27T10:19:02.804Z,4601.25
2018-07-27T10:20:02.727Z,4713.75
2018-07-27T10:21:02.636Z,4640.63
2018-07-27T10:22:02.559Z,4567.50
2018-07-27T10:23:02.475Z,4590.00
2018-07-27T10:24:02.421Z,4741.88
2018-07-27T10:25:02.323Z,4725.00
2018-07-27T10:26:02.242Z,4691.25
2018-07-27T10:27:02.164Z,4781.25
2018-07-27T10:28:02.074Z,315.00
2018-07-27T10:29:01.998Z,315.00
2018-07-27T10:30:01.830Z,691.88
2018-07-27T10:31:01.751Z,4927.50
2018-07-27T10:32:01.673Z,4955.63
2018-07-27T10:33:01.683Z,4916.25
2018-07-27T10:34:01.602Z,4978.13
2018-07-27T10:35:01.511Z,5034.38
2018-07-27T10:36:01.433Z,5006.25
2018-07-27T10:37:01.353Z,5113.13
2018-07-27T10:38:01.278Z,5135.63
2018-07-27T10:39:01.200Z,5186.25
2018-07-27T10:40:01.123Z,5180.63
2018-07-27T10:41:01.042Z,5214.38
2018-07-27T10:42:00.962Z,5265.00
2018-07-27T10:43:00.898Z,5490.00
2018-07-27T10:44:00.794Z,6288.75
2018-07-27T10:45:00.727Z,6688.13
2018-07-27T10:46:00.649Z,6946.88
2018-07-27T10:47:00.570Z,821.25
2018-07-27T10:48:00.491Z,2311.88
2018-07-27T10:49:00.414Z,748.13
2018-07-27T10:50:00.337Z,1918.13
2018-07-27T10:51:00.259Z,7070.63
2018-07-27T10:52:00.194Z,6986.25
2018-07-27T10:53:00.107Z,6840.00
2018-07-27T10:54:00.025Z,6991.88
2018-07-27T10:54:59.944Z,7076.25
2018-07-27T10:55:59.854Z,6868.13
2018-07-27T10:56:59.776Z,6828.75
2018-07-27T10:57:59.700Z,7486.88
2018-07-27T10:58:59.621Z,7689.38
2018-07-27T10:59:59.554Z,7171.88
2018-07-27T11:00:59.465Z,6586.88
2018-07-27T11:01:59.387Z,5540.63
2018-07-27T11:02:59.308Z,4893.75
2018-07-27T11:03:59.230Z,4944.38
2018-07-27T11:04:59.151Z,5062.50
2018-07-27T11:05:59.071Z,5231.25
2018-07-27T11:06:58.993Z,5782.50
2018-07-27T11:07:58.914Z,7149.38
2018-07-27T11:08:58.836Z,6806.25
2018-07-27T11:09:58.761Z,5551.88
2018-07-27T11:10:58.682Z,5259.38
2018-07-27T11:11:58.603Z,5068.13
2018-07-27T11:12:58.528Z,5107.50
2018-07-27T11:13:58.452Z,5220.00
2018-07-27T11:14:58.368Z,4005.00
2018-07-27T11:15:58.288Z,2531.25
2018-07-27T11:16:58.210Z,2295.00
2018-07-27T11:17:58.132Z,2272.50
2018-07-27T11:18:58.054Z,2233.13
2018-07-27T11:19:57.975Z,2306.25
2018-07-27T11:20:57.896Z,793.13
2018-07-27T11:21:58.096Z,776.25
2018-07-27T11:22:57.655Z,1704.38
2018-07-27T11:23:57.576Z,1614.38
2018-07-27T11:24:57.498Z,1591.88
2018-07-27T11:25:57.417Z,1586.25
2018-07-27T11:26:57.343Z,1597.50
2018-07-27T11:27:57.265Z,1575.00
2018-07-27T11:28:57.183Z,1552.50
2018-07-27T11:29:57.108Z,1552.50
2018-07-27T11:30:57.032Z,1507.50
2018-07-27T11:31:56.949Z,1001.25
2018-07-27T11:32:56.860Z,444.38
2018-07-27T11:33:56.780Z,348.75
2018-07-27T11:34:56.702Z,337.50
2018-07-27T11:35:56.623Z,331.88
2018-07-27T11:36:56.561Z,326.25
2018-07-27T11:37:56.464Z,331.88
2018-07-27T11:38:56.386Z,348.75
2018-07-27T11:39:56.307Z,376.88
2018-07-27T11:40:56.217Z,433.13
2018-07-27T11:41:56.142Z,483.75
2018-07-27T11:42:56.063Z,500.63
2018-07-27T11:43:55.971Z,528.75
2018-07-27T11:44:55.907Z,534.38
2018-07-27T11:45:55.812Z,579.38
2018-07-27T11:46:55.723Z,585.00
2018-07-27T11:47:55.645Z,466.88
2018-07-27T11:48:55.553Z,416.25
2018-07-27T11:49:55.476Z,410.63
2018-07-27T11:50:55.396Z,405.00
2018-07-27T11:51:55.307Z,388.13
2018-07-27T11:52:55.228Z,354.38
2018-07-27T11:53:55.139Z,365.63
2018-07-27T11:54:55.060Z,393.75
2018-07-27T11:55:54.970Z,433.13
2018-07-27T11:56:54.880Z,483.75
2018-07-27T11:57:54.797Z,495.00
2018-07-27T11:58:54.710Z,444.38
2018-07-27T11:59:54.629Z,399.38
2018-07-27T12:00:54.538Z,399.38
2018-07-27T12:01:54.463Z,461.25
2018-07-27T12:02:54.372Z,466.88
2018-07-27T12:03:54.281Z,838.13
2018-07-27T12:04:54.201Z,3183.75
2018-07-27T12:05:54.110Z,5028.75
2018-07-27T12:06:54.032Z,5068.13
2018-07-27T12:07:53.939Z,1175.63
2018-07-27T12:08:53.850Z,2761.88
2018-07-27T12:09:53.773Z,5068.13
2018-07-27T12:10:53.682Z,4995.00
2018-07-27T12:11:53.603Z,4747.50
2018-07-27T12:12:53.512Z,4230.00
2018-07-27T12:13:53.512Z,1850.63
2018-07-27T12:14:53.530Z,438.75
2018-07-27T12:15:53.251Z,376.88
2018-07-27T12:16:53.173Z,343.13
2018-07-27T12:17:53.084Z,326.25
2018-07-27T12:18:53.006Z,326.25
2018-07-27T12:19:52.918Z,320.63
2018-07-27T12:20:52.982Z,326.25
2018-07-27T12:21:52.747Z,331.88
2018-07-27T12:22:52.667Z,331.88
2018-07-27T12:23:52.588Z,348.75
2018-07-27T12:24:52.510Z,444.38
2018-07-27T12:25:52.418Z,641.25
2018-07-27T12:26:52.340Z,551.25
2018-07-27T12:27:52.250Z,472.50
2018-07-27T12:28:52.174Z,523.13
2018-07-27T12:29:52.107Z,528.75
2018-07-27T12:30:52.004Z,528.75
2018-07-27T12:31:51.925Z,455.63
2018-07-27T12:32:51.834Z,410.63
2018-07-27T12:33:51.753Z,365.63